Time;durP1;ratioP1;P1;durP2;ratioP2;P2;SDS_P1;SDS_P2;PMS_P1;PMS_P2;Temp;Humidity;BMP_temperature;BMP_pressure;BME280_temperature;BME280_humidity;BME280_pressure;Samples;Min_cycle;Max_cycle;Signal;HPM_P1;HPM_P2
2022/01/11 00:00:00;;;;;;;37.13;20.72;;;;;;;-0.65;67.02;101860.52;2166942;82;34200;-63
2022/01/11 00:03:00;;;;;;;40.52;22.45;;;;;;;-0.64;66.50;101853.09;2166794;81;30582;-62
2022/01/11 00:06:19;;;;;;;43.42;20.25;;;;;;;-0.65;66.68;101849.09;2166622;82;27667;-63
2022/01/11 00:09:18;;;;;;;38.95;20.52;;;;;;;-0.63;66.28;101846.07;2143604;81;29048;-60
2022/01/11 00:12:11;;;;;;;33.83;16.30;;;;;;;-0.63;66.55;101850.92;2141052;82;31643;-60
2022/01/11 00:15:13;;;;;;;38.58;21.68;;;;;;;-0.62;66.41;101849.16;2167264;82;33759;-60
2022/01/11 00:18:16;;;;;;;42.93;23.02;;;;;;;-0.65;66.50;101849.09;2167268;82;30225;-60
2022/01/11 00:21:18;;;;;;;42.27;22.58;;;;;;;-0.65;66.61;101850.00;2166775;82;27597;-60
2022/01/11 00:24:33;;;;;;;53.60;24.43;;;;;;;-0.67;66.53;101856.09;2166587;82;29498;-64
2022/01/11 00:27:36;;;;;;;61.98;27.55;;;;;;;-0.70;66.57;101859.97;2162848;82;32290;-68
2022/01/11 00:30:40;;;;;;;64.42;31.80;;;;;;;-0.74;66.47;101864.69;2129589;83;34192;-67
2022/01/11 00:33:45;;;;;;;90.00;42.05;;;;;;;-0.84;66.70;101872.39;2128823;83;31091;-64
2022/01/11 00:36:45;;;;;;;88.40;39.30;;;;;;;-0.97;67.08;101871.62;2130417;83;27776;-61
2022/01/11 00:39:54;;;;;;;81.67;37.13;;;;;;;-1.08;67.31;101871.39;2155950;82;28832;-60
2022/01/11 00:42:52;;;;;;;;;;;;;;;-1.19;67.65;101879.42;2168303;81;31043;-62
2022/01/11 00:45:56;;;;;;;78.52;34.95;;;;;;;-1.30;67.90;101884.41;2166375;82;33832;-61
2022/01/11 00:48:57;;;;;;;78.17;35.48;;;;;;;-1.42;67.98;101887.65;2165789;82;29618;-64
2022/01/11 00:51:59;;;;;;;79.03;35.98;;;;;;;-1.53;68.17;101889.55;2156777;81;27657;-61
2022/01/11 00:55:01;;;;;;;69.25;32.45;;;;;;;-1.61;68.34;101895.05;2123590;83;29929;-69
2022/01/11 00:58:03;;;;;;;72.05;35.85;;;;;;;-1.69;68.46;101892.22;2130936;83;32382;-60
2022/01/11 01:01:05;;;;;;;82.05;38.67;;;;;;;-1.80;68.77;101896.72;2135053;81;33331;-61
2022/01/11 01:04:10;;;;;;;76.92;36.13;;;;;;;-1.90;69.05;101899.51;2136291;83;30833;-69
2022/01/11 01:07:12;;;;;;;85.22;36.77;;;;;;;-1.99;69.15;101915.90;2159430;81;27682;-65
2022/01/11 01:10:24;;;;;;;83.75;35.48;;;;;;;-2.10;69.27;101906.40;2176843;81;29851;-60
2022/01/11 01:13:22;;;;;;;59.00;28.60;;;;;;;-2.18;69.52;101919.30;2176893;81;31228;-60
2022/01/11 01:16:24;;;;;;;77.03;34.92;;;;;;;-2.26;69.51;101922.14;2176871;81;33929;-63
2022/01/11 01:19:27;;;;;;;76.45;36.95;;;;;;;-2.35;69.82;101928.02;2176417;81;31090;-61
2022/01/11 01:22:29;;;;;;;82.12;39.18;;;;;;;-2.41;69.92;101933.50;2176807;81;27850;-63
2022/01/11 01:25:31;;;;;;;82.17;38.67;;;;;;;-2.51;70.04;101934.52;2176053;81;27888;-63
2022/01/11 01:28:33;;;;;;;85.57;39.50;;;;;;;-2.58;70.08;101937.81;2176947;81;31376;-62
2022/01/11 01:31:35;;;;;;;100.75;42.23;;;;;;;-2.63;70.19;101939.39;2173738;81;33655;-65
2022/01/11 01:34:38;;;;;;;97.42;44.03;;;;;;;-2.69;70.28;101932.22;2176552;81;30099;-65
2022/01/11 01:37:40;;;;;;;94.77;44.38;;;;;;;-2.75;70.55;101942.51;2176841;81;27679;-65
2022/01/11 01:40:46;;;;;;;99.05;43.55;;;;;;;-2.83;70.51;101947.52;2176478;81;30162;-66
2022/01/11 01:43:51;;;;;;;95.72;43.25;;;;;;;-2.87;70.57;101941.69;2176712;81;31385;-60
2022/01/11 01:46:53;;;;;;;93.72;44.95;;;;;;;-2.92;70.79;101939.36;2177010;81;32971;-64
2022/01/11 01:49:55;;;;;;;98.97;45.52;;;;;;;-2.99;71.02;101942.61;2176479;81;30842;-62
2022/01/11 01:52:59;;;;;;;102.90;45.70;;;;;;;-3.06;71.11;101948.07;2151600;81;27721;-64
2022/01/11 01:56:00;;;;;;;94.10;45.17;;;;;;;-3.13;71.23;101942.14;2130771;83;29625;-64
2022/01/11 01:59:03;;;;;;;107.75;47.43;;;;;;;-3.17;71.30;101948.14;2131314;83;31437;-66
2022/01/11 02:02:08;;;;;;;108.85;48.60;;;;;;;-3.23;71.59;101948.83;2169333;81;32993;-63
2022/01/11 02:05:10;;;;;;;100.35;46.20;;;;;;;-3.27;71.37;101945.63;2176508;81;30661;-67
2022/01/11 02:08:13;;;;;;;108.42;47.23;;;;;;;-3.30;71.33;101949.45;2162693;81;27688;-62
2022/01/11 02:11:21;;;;;;;112.75;51.10;;;;;;;-3.33;71.39;101950.25;2130990;83;28665;-66
2022/01/11 02:14:23;;;;;;;107.72;49.40;;;;;;;-3.38;71.40;101945.26;2131146;83;31005;-64
2022/01/11 02:17:29;;;;;;;110.17;48.98;;;;;;;-3.44;71.50;101948.56;2137200;81;33863;-63
2022/01/11 02:20:31;;;;;;;114.30;50.92;;;;;;;-3.49;71.60;101950.55;2139190;81;30109;-66
2022/01/11 02:23:34;;;;;;;115.03;49.18;;;;;;;-3.54;71.77;101952.98;2139023;83;27793;-65
2022/01/11 02:26:35;;;;;;;117.47;52.45;;;;;;;-3.57;71.78;101952.91;2139307;83;29871;-63
2022/01/11 02:29:38;;;;;;;117.82;52.53;;;;;;;-3.61;71.80;101953.19;2139828;81;30813;-65
2022/01/11 02:32:51;;;;;;;111.32;52.15;;;;;;;-3.64;71.91;101953.52;2139830;81;33859;-67
2022/01/11 02:35:53;;;;;;;119.08;52.00;;;;;;;-3.68;71.92;101954.70;2139155;83;31505;-64
2022/01/11 02:38:56;;;;;;;123.33;54.75;;;;;;;-3.72;71.96;101955.42;2139999;83;27650;-63
2022/01/11 02:42:01;;;;;;;117.57;51.05;;;;;;;-3.76;72.01;101960.10;2141518;81;29129;-65
2022/01/11 02:45:03;;;;;;;128.23;55.67;;;;;;;-3.80;71.99;101967.37;2139794;83;32334;-66
2022/01/11 02:48:07;;;;;;;121.77;55.23;;;;;;;-3.84;72.04;101968.98;2139563;83;33753;-65
2022/01/11 02:51:09;;;;;;;124.35;52.08;;;;;;;-3.88;71.99;101967.48;2139701;83;29677;-64
2022/01/11 02:54:11;;;;;;;123.80;51.77;;;;;;;-3.92;71.96;101973.47;2139497;83;27613;-66
2022/01/11 02:57:13;;;;;;;111.75;50.55;;;;;;;-3.97;71.88;101971.56;2135460;83;29715;-65
2022/01/11 03:00:20;;;;;;;109.92;50.15;;;;;;;-4.03;71.79;101973.94;2139922;82;32267;-64
2022/01/11 03:03:22;;;;;;;120.15;51.60;;;;;;;-4.10;71.76;101971.03;2170471;82;33116;-66
2022/01/11 03:06:25;;;;;;;107.60;47.03;;;;;;;-4.17;71.77;101978.67;2170217;82;30462;-66
2022/01/11 03:09:32;;;;;;;114.32;50.30;;;;;;;-4.24;71.74;101971.41;2170251;81;27688;-67
2022/01/11 03:12:31;;;;;;;116.13;49.10;;;;;;;-4.30;71.73;101981.66;2169984;82;29407;-67
2022/01/11 03:15:34;;;;;;;116.77;46.80;;;;;;;-4.37;71.81;101975.27;2148337;82;32250;-68
2022/01/11 03:18:36;;;;;;;108.32;48.28;;;;;;;-4.43;71.89;101979.85;2169893;81;34301;-65
2022/01/11 03:21:38;;;;;;;116.93;48.60;;;;;;;-4.48;71.99;101987.95;2170295;82;29745;-65
2022/01/11 03:24:40;;;;;;;114.08;48.78;;;;;;;-4.52;72.00;102000.83;2169952;82;27692;-66
2022/01/11 03:27:43;;;;;;;107.22;47.53;;;;;;;-4.56;72.03;101995.02;2170277;81;29809;-67
2022/01/11 03:30:45;;;;;;;117.15;47.98;;;;;;;-4.62;72.01;101999.16;2153569;81;32210;-65
2022/01/11 03:33:47;;;;;;;112.90;47.67;;;;;;;-4.67;72.02;101994.58;2155666;82;34218;-64
2022/01/11 03:36:49;;;;;;;99.67;45.88;;;;;;;-4.73;72.05;102001.34;2150716;82;30970;-66
2022/01/11 03:39:50;;;;;;;105.30;47.62;;;;;;;-4.78;72.05;102004.17;2169351;82;28376;-67
2022/01/11 03:42:53;;;;;;;109.70;48.15;;;;;;;-4.82;72.16;102003.59;2170294;82;29349;-65
2022/01/11 03:45:55;;;;;;;101.67;46.08;;;;;;;-4.85;72.19;102002.55;2169805;82;32191;-68
2022/01/11 03:48:57;;;;;;;103.50;46.88;;;;;;;-4.91;72.21;102006.72;2178738;79;34463;-65
2022/01/11 03:51:59;;;;;;;107.55;48.00;;;;;;;-4.95;72.26;102002.18;2188130;80;29835;-66
2022/01/11 03:55:05;;;;;;;109.80;47.27;;;;;;;-4.98;72.31;102011.20;2188170;81;27714;-67
2022/01/11 03:58:06;;;;;;;;;;;;;;;-5.01;72.29;102012.36;2191032;81;29130;-62
2022/01/11 04:01:08;;;;;;;108.57;47.38;;;;;;;-5.05;72.32;102012.66;2188155;81;30866;-61
2022/01/11 04:04:11;;;;;;;97.47;46.55;;;;;;;-5.10;72.28;102014.61;2187820;81;34194;-64
2022/01/11 04:07:12;;;;;;;108.30;46.30;;;;;;;-5.16;72.30;102019.16;2188159;81;30615;-61
2022/01/11 04:10:14;;;;;;;99.22;45.03;;;;;;;-5.20;72.30;102018.11;2188898;81;27594;-63
2022/01/11 04:13:16;;;;;;;111.55;49.80;;;;;;;-5.24;72.31;102016.22;2187970;81;30093;-61
2022/01/11 04:16:18;;;;;;;103.75;45.88;;;;;;;-5.29;72.29;102022.95;2188254;81;31165;-64
2022/01/11 04:19:21;;;;;;;118.20;49.38;;;;;;;-5.32;72.24;102025.43;2187062;81;33415;-61
2022/01/11 04:22:23;;;;;;;105.83;46.05;;;;;;;-5.37;72.30;102034.38;2150510;82;29460;-65
2022/01/11 04:25:26;;;;;;;116.88;48.42;;;;;;;-5.43;72.28;102026.27;2150035;81;27735;-63
2022/01/11 04:28:28;;;;;;;117.72;50.35;;;;;;;-5.44;72.29;102030.13;2149850;82;28957;-65
2022/01/11 04:31:32;;;;;;;111.62;47.33;;;;;;;-5.49;72.28;102032.11;2150442;82;32162;-65
2022/01/11 04:34:34;;;;;;;114.05;49.65;;;;;;;-5.52;72.29;102025.44;2180705;80;32952;-64
2022/01/11 04:37:36;;;;;;;116.90;49.05;;;;;;;-5.55;72.25;102030.95;2202534;80;29533;-67
2022/01/11 04:40:38;;;;;;;109.12;47.95;;;;;;;-5.59;72.27;102029.93;2201938;80;28278;-67
2022/01/11 04:43:40;;;;;;;116.77;49.23;;;;;;;-5.63;72.27;102029.73;2182482;80;29547;-67
2022/01/11 04:46:42;;;;;;;108.72;48.68;;;;;;;-5.67;72.26;102039.12;2187899;81;31900;-68
2022/01/11 04:49:44;;;;;;;117.30;46.80;;;;;;;-5.72;72.25;102038.05;2177491;81;33391;-67
2022/01/11 04:52:46;;;;;;;111.88;50.20;;;;;;;-5.75;72.26;102038.77;2175097;80;30853;-67
2022/01/11 04:55:47;;;;;;;115.15;46.92;;;;;;;-5.77;72.33;102040.84;2214143;80;27659;-67
2022/01/11 04:58:49;;;;;;;115.57;48.87;;;;;;;-5.81;72.34;102044.61;2214105;80;29867;-66
2022/01/11 05:01:51;;;;;;;112.97;51.35;;;;;;;-5.83;72.30;102042.77;2213734;80;32278;-62
2022/01/11 05:04:53;;;;;;;108.55;48.65;;;;;;;-5.87;72.29;102045.62;2184750;80;33307;-66
2022/01/11 05:07:56;;;;;;;110.30;49.53;;;;;;;-5.89;72.31;102047.30;2174600;81;30796;-66
2022/01/11 05:10:58;;;;;;;119.50;51.95;;;;;;;-5.90;72.37;102052.42;2174938;81;27611;-66
2022/01/11 05:13:59;;;;;;;128.27;52.70;;;;;;;-5.96;72.47;102055.26;2171571;80;30022;-67
2022/01/11 05:17:01;;;;;;;110.85;50.85;;;;;;;-6.00;72.47;102053.75;2213690;80;32265;-66
2022/01/11 05:20:06;;;;;;;126.75;49.85;;;;;;;-6.02;72.48;102061.52;2213867;80;33392;-66
2022/01/11 05:23:09;;;;;;;117.85;50.45;;;;;;;-6.04;72.53;102071.41;2209726;80;29629;-65
2022/01/11 05:26:11;;;;;;;115.65;50.20;;;;;;;-6.06;72.52;102071.31;2175046;81;27673;-65
2022/01/11 05:29:13;;;;;;;120.55;50.67;;;;;;;-6.09;72.50;102071.59;2174779;81;29023;-65
2022/01/11 05:32:14;;;;;;;151.02;62.88;;;;;;;-6.10;72.53;102075.90;2174975;81;32185;-64
2022/01/11 05:35:19;;;;;;;156.80;65.28;;;;;;;-6.12;72.72;102082.36;2195210;80;33339;-67
2022/01/11 05:38:21;;;;;;;149.32;61.33;;;;;;;-6.11;73.02;102084.54;2201022;80;29631;-67
2022/01/11 05:41:23;;;;;;;153.02;60.25;;;;;;;-6.11;73.20;102082.84;2201019;80;28317;-66
2022/01/11 05:44:28;;;;;;;140.18;62.25;;;;;;;-6.09;73.35;102090.73;2189270;80;29861;-66
2022/01/11 05:47:30;;;;;;;147.98;61.83;;;;;;;-6.07;73.48;102098.66;2174870;81;31645;-66
2022/01/11 05:50:32;;;;;;;212.10;73.52;;;;;;;-6.06;73.53;102092.61;2186055;81;33333;-66
2022/01/11 05:53:34;;;;;;;190.80;74.32;;;;;;;-6.06;73.38;102100.02;2189992;80;30775;-66
2022/01/11 05:56:36;;;;;;;165.57;64.07;;;;;;;-6.06;73.23;102105.23;2209936;80;27653;-66
2022/01/11 05:59:37;;;;;;;149.90;61.42;;;;;;;-6.07;73.16;102103.44;2211158;80;29009;-66
2022/01/11 06:02:42;;;;;;;147.53;61.25;;;;;;;-6.08;73.17;102110.78;2211187;80;30929;-66
2022/01/11 06:05:43;;;;;;;153.45;64.37;;;;;;;-6.09;73.22;102112.91;2160566;80;34355;-67
2022/01/11 06:08:45;;;;;;;157.37;63.05;;;;;;;-6.09;73.17;102118.55;2150783;81;30774;-66
2022/01/11 06:11:46;;;;;;;146.60;60.48;;;;;;;-6.11;73.13;102122.37;2150391;82;27720;-67
2022/01/11 06:14:48;;;;;;;140.57;61.65;;;;;;;-6.13;73.05;102131.44;2182986;80;29110;-67
2022/01/11 06:17:50;;;;;;;140.40;61.28;;;;;;;-6.15;73.00;102133.08;2211090;80;32213;-66
2022/01/11 06:20:52;;;;;;;135.37;59.65;;;;;;;-6.18;72.93;102130.31;2178943;80;34093;-65
2022/01/11 06:23:54;;;;;;;191.40;84.28;;;;;;;-6.20;72.84;102138.89;2164709;80;30566;-66
2022/01/11 06:26:56;;;;;;;168.13;72.20;;;;;;;-6.23;72.90;102141.34;2190779;80;28062;-67
2022/01/11 06:29:58;;;;;;;157.30;66.65;;;;;;;-6.27;72.93;102145.52;2191291;81;29054;-64
2022/01/11 06:32:59;;;;;;;281.85;100.78;;;;;;;-6.29;73.06;102139.33;2158258;81;32254;-65
2022/01/11 06:36:09;;;;;;;201.47;79.42;;;;;;;-6.29;73.17;102145.86;2180839;80;33012;-66
2022/01/11 06:39:07;;;;;;;239.15;86.17;;;;;;;-6.31;73.08;102146.19;2137391;83;29552;-60
2022/01/11 06:42:09;;;;;;;232.52;85.47;;;;;;;-6.31;73.01;102150.09;2143866;81;27687;-65
2022/01/11 06:45:12;;;;;;;249.80;91.25;;;;;;;-6.34;72.98;102157.38;2174323;80;28942;-67
2022/01/11 06:48:14;;;;;;;194.97;77.45;;;;;;;-6.34;73.01;102157.77;2169801;81;32185;-65
2022/01/11 06:51:16;;;;;;;191.35;75.67;;;;;;;-6.35;73.04;102156.88;2145806;82;34038;-66
2022/01/11 06:54:18;;;;;;;185.88;74.15;;;;;;;-6.37;73.10;102161.12;2196445;80;30026;-66
2022/01/11 06:57:20;;;;;;;174.87;71.35;;;;;;;-6.35;73.06;102161.19;2189050;80;27706;-61
2022/01/11 07:00:23;;;;;;;175.62;70.35;;;;;;;-6.36;73.02;102164.61;2190272;81;29722;-65
2022/01/11 07:03:25;;;;;;;169.13;71.05;;;;;;;-6.36;73.05;102166.83;2198488;80;31062;-63
2022/01/11 07:06:28;;;;;;;171.95;65.78;;;;;;;-6.35;73.07;102172.92;2152945;82;34140;-61
2022/01/11 07:09:31;;;;;;;168.78;67.75;;;;;;;-6.35;73.09;102172.92;2145825;82;30852;-66
2022/01/11 07:12:33;;;;;;;161.40;65.20;;;;;;;-6.33;73.14;102175.20;2161164;80;27649;-62
2022/01/11 07:15:36;;;;;;;166.47;63.95;;;;;;;-6.32;73.17;102175.69;2206595;80;27697;-62
2022/01/11 07:18:38;;;;;;;165.73;66.90;;;;;;;-6.29;73.13;102181.06;2206490;80;32227;-67
2022/01/11 07:21:41;;;;;;;169.80;67.27;;;;;;;-6.27;73.18;102187.25;2206540;80;35057;-66
2022/01/11 07:24:42;;;;;;;171.53;66.20;;;;;;;-6.23;73.23;102185.69;2181424;80;29641;-64
2022/01/11 07:27:44;;;;;;;188.55;70.72;;;;;;;-6.20;73.24;102181.51;2184245;81;27736;-63
2022/01/11 07:30:46;;;;;;;193.10;72.42;;;;;;;-6.16;73.32;102183.45;2184948;81;28992;-63
2022/01/11 07:33:48;;;;;;;191.77;73.47;;;;;;;-6.11;73.33;102181.98;2198995;80;32188;-61
2022/01/11 07:36:52;;;;;;;201.22;75.00;;;;;;;-6.05;73.39;102188.33;2206470;80;34198;-61
2022/01/11 07:39:53;;;;;;;193.25;73.85;;;;;;;-5.98;73.46;102191.67;2206714;80;29826;-65
2022/01/11 07:42:55;;;;;;;190.57;76.65;;;;;;;-5.87;73.58;102186.98;2196377;80;28167;-66
2022/01/11 07:45:57;;;;;;;200.70;77.30;;;;;;;-5.74;73.61;102187.17;2181185;80;28846;-65
2022/01/11 07:49:02;;;;;;;187.22;75.15;;;;;;;-5.60;73.74;102187.80;2182385;81;31727;-64
2022/01/11 07:52:05;;;;;;;211.55;84.25;;;;;;;-5.46;73.79;102189.37;2187858;80;33025;-61
2022/01/11 07:55:08;;;;;;;205.67;88.17;;;;;;;-5.28;74.09;102193.23;2150163;82;30522;-63
2022/01/11 07:58:12;;;;;;;216.67;87.70;;;;;;;-5.11;74.02;102198.34;2150546;82;27570;-66
2022/01/11 08:01:14;;;;;;;205.37;83.65;;;;;;;-4.94;74.13;102200.00;2170228;80;29052;-60
2022/01/11 08:04:16;;;;;;;224.12;89.07;;;;;;;-4.75;74.15;102199.08;2190674;81;32260;-60
2022/01/11 08:07:18;;;;;;;241.80;103.32;;;;;;;-4.55;74.13;102196.45;2190846;81;34141;-60
2022/01/11 08:10:20;;;;;;;228.42;98.62;;;;;;;-4.38;74.03;102191.05;2188261;80;30837;-61
2022/01/11 08:13:23;;;;;;;223.38;94.97;;;;;;;-4.24;73.98;102188.59;2179241;81;27702;-61
2022/01/11 08:16:25;;;;;;;212.90;94.65;;;;;;;-4.14;73.96;102184.64;2181131;81;28724;-62
2022/01/11 08:19:27;;;;;;;212.60;96.55;;;;;;;-4.06;73.78;102191.10;2181299;81;31187;-60
2022/01/11 08:22:29;;;;;;;210.78;94.55;;;;;;;-3.98;73.81;102196.22;2206530;80;33789;-65
2022/01/11 08:25:32;;;;;;;217.53;94.07;;;;;;;-3.90;73.82;102188.67;2207969;80;30769;-65
2022/01/11 08:28:39;;;;;;;209.07;91.85;;;;;;;-3.82;73.77;102197.75;2190968;81;27749;-65
2022/01/11 08:31:40;;;;;;;182.75;78.90;;;;;;;-3.72;73.74;102200.30;2186697;80;29910;-67
2022/01/11 08:34:43;;;;;;;387.55;166.05;;;;;;;-3.63;73.80;102195.83;2175332;81;32022;-66
2022/01/11 08:37:45;;;;;;;321.70;124.67;;;;;;;-3.54;73.68;102196.62;2180944;81;32973;-63
2022/01/11 08:40:47;;;;;;;294.00;131.12;;;;;;;-3.49;73.59;102196.39;2187419;80;30176;-66
2022/01/11 08:43:49;;;;;;;185.03;78.22;;;;;;;-3.41;73.64;102198.91;2213773;80;27181;-63
2022/01/11 08:46:51;;;;;;;199.95;84.97;;;;;;;-3.33;73.58;102200.91;2211428;80;28491;-66
2022/01/11 08:49:53;;;;;;;188.47;81.42;;;;;;;-3.27;73.54;102209.89;2205227;80;31374;-63
2022/01/11 08:52:57;;;;;;;182.57;82.72;;;;;;;-3.18;73.50;102204.11;2187895;80;34262;-63
2022/01/11 08:56:01;;;;;;;173.78;77.80;;;;;;;-3.08;73.58;102212.82;2187637;81;30871;-62
2022/01/11 08:59:03;;;;;;;223.13;98.03;;;;;;;-2.97;73.55;102215.81;2187735;81;27596;-61
2022/01/11 09:02:07;;;;;;;205.52;91.45;;;;;;;-2.86;73.57;102221.90;2199696;80;28434;-61
2022/01/11 09:05:09;;;;;;;194.20;87.03;;;;;;;-2.76;73.65;102227.94;2204343;80;32039;-60
2022/01/11 09:08:12;;;;;;;157.18;71.70;;;;;;;-2.67;73.58;102233.94;2204081;80;34183;-63
2022/01/11 09:11:13;;;;;;;158.60;71.02;;;;;;;-2.56;73.49;102238.27;2195067;80;29417;-60
2022/01/11 09:14:15;;;;;;;160.95;70.08;;;;;;;-2.49;73.47;102238.55;2178597;81;27669;-60
2022/01/11 09:17:17;;;;;;;153.00;70.22;;;;;;;-2.40;73.45;102234.04;2178359;81;29873;-66
2022/01/11 09:20:19;;;;;;;156.67;67.67;;;;;;;-2.31;73.34;102236.09;2187252;80;32358;-67
2022/01/11 09:23:21;;;;;;;154.82;73.72;;;;;;;-2.20;73.47;102237.35;2200821;80;34133;-61
2022/01/11 09:26:25;;;;;;;158.42;74.90;;;;;;;-2.09;73.46;102236.41;2204302;80;30118;-63
2022/01/11 09:29:27;;;;;;;150.32;73.37;;;;;;;-2.00;73.31;102238.05;2198869;80;27649;-66
2022/01/11 09:32:30;;;;;;;162.53;76.47;;;;;;;-1.91;73.17;102234.84;2186424;81;29545;-64
2022/01/11 09:35:32;;;;;;;182.75;81.78;;;;;;;-1.81;73.27;102232.06;2185313;81;31406;-64
2022/01/11 09:38:34;;;;;;;149.75;68.30;;;;;;;-1.71;73.06;102228.00;2184937;80;34193;-61
2022/01/11 09:41:36;;;;;;;146.57;71.82;;;;;;;-1.62;72.95;102226.09;2217687;80;30017;-65
2022/01/11 09:44:39;;;;;;;153.53;72.55;;;;;;;-1.53;72.88;102227.28;2218893;80;27654;-61
2022/01/11 09:47:40;;;;;;;149.35;72.20;;;;;;;-1.47;72.46;102227.02;2210651;80;30053;-67
2022/01/11 09:50:42;;;;;;;142.95;64.67;;;;;;;-1.42;72.55;102224.12;2178762;81;32182;-63
2022/01/11 09:53:46;;;;;;;135.32;63.10;;;;;;;-1.33;72.67;102224.83;2176943;81;34354;-62
2022/01/11 09:56:48;;;;;;;141.20;67.30;;;;;;;-1.27;72.58;102224.98;2177965;81;29832;-62
2022/01/11 09:59:51;;;;;;;147.68;66.80;;;;;;;-1.25;72.51;102224.22;2209179;80;27605;-65
2022/01/11 10:02:53;;;;;;;133.67;62.62;;;;;;;-1.18;72.43;102226.60;2206006;80;28587;-66
2022/01/11 10:05:55;;;;;;;133.12;66.40;;;;;;;-1.15;72.24;102229.30;2200656;80;31044;-65
2022/01/11 10:09:13;;;;;;;128.30;63.60;;;;;;;-1.10;72.38;102224.20;2160139;80;32782;-62
2022/01/11 10:12:18;;;;;;;140.75;65.60;;;;;;;-1.03;72.39;102222.64;2139024;81;30651;-60
2022/01/11 10:15:29;;;;;;;144.47;68.70;;;;;;;-0.98;72.27;102227.59;2141056;82;27768;-61
2022/01/11 10:18:37;;;;;;;165.50;72.15;;;;;;;-0.92;72.26;102234.36;2167027;80;28820;-61
2022/01/11 10:21:43;;;;;;;134.35;64.58;;;;;;;-0.87;72.12;102237.12;2196802;80;31210;-61
2022/01/11 10:24:52;;;;;;;143.35;66.57;;;;;;;-0.84;72.10;102235.90;2201019;80;33368;-60
2022/01/11 10:28:09;;;;;;;125.02;58.63;;;;;;;-0.80;71.94;102243.92;2185357;80;29741;-60
2022/01/11 10:31:12;;;;;;;126.30;61.40;;;;;;;-0.78;71.75;102239.59;2141966;82;27479;-61
2022/01/11 10:34:14;;;;;;;133.35;60.48;;;;;;;-0.73;71.78;102239.72;2141291;82;29625;-63
2022/01/11 10:37:29;;;;;;;119.77;58.85;;;;;;;-0.70;71.79;102239.81;2144272;80;32266;-63
2022/01/11 10:40:36;;;;;;;114.10;53.85;;;;;;;-0.66;71.65;102245.64;2141361;83;34282;-62
2022/01/11 10:43:44;;;;;;;125.90;58.48;;;;;;;-0.66;71.28;102241.69;2139036;83;29786;-60
2022/01/11 10:46:47;;;;;;;132.30;63.52;;;;;;;-0.65;71.48;102247.83;2141291;82;27715;-61
2022/01/11 10:49:53;;;;;;;121.13;59.93;;;;;;;-0.59;71.43;102248.02;2130019;81;29657;-64
2022/01/11 10:52:57;;;;;;;112.05;55.83;;;;;;;-0.57;71.40;102243.69;2136993;82;31019;-60
2022/01/11 10:56:01;;;;;;;104.90;55.38;;;;;;;-0.51;71.32;102246.91;2158682;82;33173;-63
2022/01/11 10:59:09;;;;;;;110.43;54.27;;;;;;;-0.48;71.14;102240.42;2175984;81;30461;-65
2022/01/11 11:02:26;;;;;;;118.95;54.90;;;;;;;-0.46;70.96;102247.94;2188491;81;28171;-67
2022/01/11 11:05:39;;;;;;;92.37;48.08;;;;;;;-0.46;70.96;102245.31;2187798;81;29721;-60
2022/01/11 11:08:44;;;;;;;74.62;38.90;;;;;;;-0.42;70.83;102247.59;2172726;81;31138;-60
2022/01/11 11:11:46;;;;;;;65.50;34.60;;;;;;;-0.40;70.51;102242.82;2153201;82;32931;-63
2022/01/11 11:14:55;;;;;;;82.50;40.12;;;;;;;-0.33;70.43;102249.17;2122241;83;30475;-62
2022/01/11 11:17:57;;;;;;;87.90;41.15;;;;;;;-0.28;70.18;102248.85;2136187;81;27775;-60
2022/01/11 11:21:21;;;;;;;89.42;43.02;;;;;;;-0.24;70.08;102249.41;2169414;81;29137;-59
2022/01/11 11:24:24;;;;;;;79.97;39.23;;;;;;;-0.18;70.21;102248.27;2167312;81;32350;-60
2022/01/11 11:27:28;;;;;;;88.30;42.90;;;;;;;-0.12;69.87;102243.98;2187435;81;32177;-61
2022/01/11 11:30:33;;;;;;;94.00;48.08;;;;;;;-0.10;69.72;102239.66;2158564;82;27693;-61
2022/01/11 11:33:38;;;;;;;110.63;55.43;;;;;;;-0.07;69.87;102234.03;2158879;82;27636;-68
2022/01/11 11:36:42;;;;;;;105.78;51.02;;;;;;;-0.04;69.74;102238.06;2142146;80;29607;-62
2022/01/11 11:39:45;;;;;;;89.03;42.17;;;;;;;0.01;69.90;102235.98;2172633;81;31117;-63
2022/01/11 11:42:55;;;;;;;111.50;54.35;;;;;;;0.05;69.90;102232.14;2187402;81;33769;-60
2022/01/11 11:45:58;;;;;;;115.37;55.15;;;;;;;0.10;69.63;102235.80;2187135;81;30105;-66
2022/01/11 11:49:01;;;;;;;112.30;54.18;;;;;;;0.12;69.63;102224.87;2147444;81;27716;-62
2022/01/11 11:52:33;;;;;;;111.70;51.90;;;;;;;0.14;69.72;102215.26;2148903;81;29033;-63
2022/01/11 11:55:35;;;;;;;104.12;53.95;;;;;;;0.19;69.76;102214.05;2146894;82;31190;-62
2022/01/11 11:58:46;;;;;;;94.70;50.25;;;;;;;0.24;69.63;102211.52;2168665;80;34235;-61
2022/01/11 12:01:49;;;;;;;92.08;46.70;;;;;;;0.24;69.40;102207.15;2200750;80;29627;-67
2022/01/11 12:04:53;;;;;;;90.15;45.67;;;;;;;0.24;69.28;102207.56;2180381;80;28314;-61
2022/01/11 12:07:55;;;;;;;73.07;39.05;;;;;;;0.23;69.05;102208.41;2175427;80;28643;-65
2022/01/11 12:11:04;;;;;;;79.17;38.70;;;;;;;0.21;68.93;102206.16;2204027;80;31397;-67
2022/01/11 12:14:06;;;;;;;64.50;31.50;;;;;;;0.20;68.74;102204.38;2201036;80;32970;-67
2022/01/11 12:17:18;;;;;;;57.08;30.90;;;;;;;0.17;68.06;102203.02;2155218;80;29994;-65
2022/01/11 12:20:52;;;;;;;68.30;34.58;;;;;;;0.10;67.69;102206.80;2181543;80;27713;-68
2022/01/11 12:23:59;;;;;;;63.98;32.28;;;;;;;0.08;68.23;102198.41;2176662;81;30142;-64
2022/01/11 12:27:01;;;;;;;49.85;26.50;;;;;;;0.06;68.00;102190.45;2177472;81;32122;-64
2022/01/11 12:30:07;;;;;;;59.80;29.92;;;;;;;0.05;67.31;102193.93;2197195;80;34145;-67
2022/01/11 12:33:19;;;;;;;57.80;29.45;;;;;;;0.02;67.67;102197.80;2173529;80;29624;-63
2022/01/11 12:36:21;;;;;;;47.65;26.60;;;;;;;0.04;67.41;102199.17;2150605;81;27676;-62
2022/01/11 12:39:26;;;;;;;55.45;28.30;;;;;;;0.02;67.28;102198.25;2177953;80;29194;-66
2022/01/11 12:42:28;;;;;;;57.45;28.07;;;;;;;0.01;67.47;102201.73;2201055;80;30560;-66
2022/01/11 12:46:02;;;;;;;63.30;33.38;;;;;;;0.02;67.46;102205.70;2201074;80;33332;-62
2022/01/11 12:49:06;;;;;;;71.07;33.08;;;;;;;0.00;67.03;102203.48;2185483;80;30400;-69
2022/01/11 12:52:14;;;;;;;61.13;31.48;;;;;;;-0.05;67.08;102202.03;2197613;80;27639;-70
2022/01/11 12:55:16;;;;;;;67.72;33.75;;;;;;;-0.07;66.93;102209.45;2193330;81;29769;-70
2022/01/11 12:58:18;;;;;;;64.27;33.80;;;;;;;-0.10;67.02;102206.72;2193270;81;32167;-64
2022/01/11 13:01:21;;;;;;;60.40;34.43;;;;;;;-0.11;67.15;102207.17;2179657;80;34246;-71
2022/01/11 13:04:51;;;;;;;68.20;35.85;;;;;;;-0.14;67.37;102207.08;2146165;82;30259;-67
2022/01/11 13:07:54;;;;;;;69.32;36.28;;;;;;;-0.16;67.48;102205.70;2122803;83;27601;-71
2022/01/11 13:10:56;;;;;;;74.42;36.50;;;;;;;-0.19;67.21;102211.33;2154897;80;29485;-71
2022/01/11 13:14:30;;;;;;;82.27;38.42;;;;;;;-0.21;67.09;102214.34;2162435;80;32242;-70
2022/01/11 13:17:22;;;;;;;80.97;43.35;;;;;;;-0.24;67.39;102216.48;2156315;82;34350;-61
2022/01/11 13:20:27;;;;;;;83.40;41.85;;;;;;;-0.27;67.36;102213.77;2168214;80;30944;-63
2022/01/11 13:23:44;;;;;;;75.35;38.95;;;;;;;-0.30;67.63;102208.41;2171278;81;27653;-69
2022/01/11 13:26:40;;;;;;;83.00;40.55;;;;;;;-0.33;67.67;102207.92;2191461;80;28626;-68
2022/01/11 13:29:43;;;;;;;79.17;41.98;;;;;;;-0.34;67.55;102211.84;2193567;81;31882;-70
2022/01/11 13:32:47;;;;;;;87.20;42.73;;;;;;;-0.36;67.66;102206.95;2193567;81;32418;-66
2022/01/11 13:35:52;;;;;;;88.12;45.78;;;;;;;-0.36;67.78;102214.86;2182754;80;29586;-67
2022/01/11 13:38:56;;;;;;;87.00;41.65;;;;;;;-0.39;67.62;102211.70;2159684;80;27741;-73
2022/01/11 13:42:05;;;;;;;87.53;43.17;;;;;;;-0.40;67.66;102217.80;2159869;82;29532;-74
2022/01/11 13:45:08;;;;;;;89.77;42.33;;;;;;;-0.44;67.70;102217.69;2163005;80;31838;-74
2022/01/11 13:48:21;;;;;;;81.25;42.45;;;;;;;-0.48;67.74;102216.28;2193783;81;33658;-67